sensor_id;sensor_type;location;lat;lon;timestamp;pressure;altitude;pressure_sealevel;temperature;humidity
70370;BME280;57790;51.356;-2.906;2022-10-16T00:02:37;100605.91;;;12.49;69.49
70370;BME280;57790;51.356;-2.906;2022-10-16T00:05:42;100596.56;;;12.53;69.73
70370;BME280;57790;51.356;-2.906;2022-10-16T00:08:43;100620.72;;;12.43;69.92
70370;BME280;57790;51.356;-2.906;2022-10-16T00:11:44;100608.50;;;12.57;69.09
70370;BME280;57790;51.356;-2.906;2022-10-16T00:14:44;100614.22;;;12.69;69.52
70370;BME280;57790;51.356;-2.906;2022-10-16T00:17:44;100628.66;;;12.51;69.53
70370;BME280;57790;51.356;-2.906;2022-10-16T00:20:45;100630.38;;;12.44;69.83
70370;BME280;57790;51.356;-2.906;2022-10-16T00:23:45;100640.06;;;12.37;70.10
70370;BME280;57790;51.356;-2.906;2022-10-16T00:26:49;100634.63;;;12.31;69.92
70370;BME280;57790;51.356;-2.906;2022-10-16T00:29:50;100638.28;;;12.30;69.92
70370;BME280;57790;51.356;-2.906;2022-10-16T00:32:51;100642.44;;;12.32;69.98
70370;BME280;57790;51.356;-2.906;2022-10-16T00:35:52;100647.50;;;12.19;70.30
70370;BME280;57790;51.356;-2.906;2022-10-16T00:38:53;100649.81;;;12.45;69.53
70370;BME280;57790;51.356;-2.906;2022-10-16T00:41:54;100646.94;;;12.24;69.38
70370;BME280;57790;51.356;-2.906;2022-10-16T00:44:57;100648.63;;;12.47;69.11
70370;BME280;57790;51.356;-2.906;2022-10-16T00:47:57;100642.47;;;12.24;69.59
70370;BME280;57790;51.356;-2.906;2022-10-16T00:50:58;100650.78;;;12.21;69.92
70370;BME280;57790;51.356;-2.906;2022-10-16T00:54:00;100654.72;;;12.02;70.75
70370;BME280;57790;51.356;-2.906;2022-10-16T00:57:04;100659.69;;;12.05;70.66
70370;BME280;57790;51.356;-2.906;2022-10-16T01:00:08;100662.19;;;11.99;71.61
70370;BME280;57790;51.356;-2.906;2022-10-16T01:03:24;100674.00;;;11.96;70.54
70370;BME280;57790;51.356;-2.906;2022-10-16T01:16:19;100684.63;;;11.96;70.66
70370;BME280;57790;51.356;-2.906;2022-10-16T01:32:53;100704.75;;;11.90;70.14
70370;BME280;57790;51.356;-2.906;2022-10-16T01:36:00;100707.78;;;11.79;71.02
70370;BME280;57790;51.356;-2.906;2022-10-16T01:39:02;100710.72;;;11.84;71.70
70370;BME280;57790;51.356;-2.906;2022-10-16T01:42:14;100723.47;;;11.97;70.07
70370;BME280;57790;51.356;-2.906;2022-10-16T01:45:18;100719.69;;;11.91;71.77
70370;BME280;57790;51.356;-2.906;2022-10-16T01:48:21;100725.38;;;11.80;70.38
70370;BME280;57790;51.356;-2.906;2022-10-16T01:51:24;100726.19;;;11.89;70.23
70370;BME280;57790;51.356;-2.906;2022-10-16T01:54:27;100739.78;;;11.78;70.03
70370;BME280;57790;51.356;-2.906;2022-10-16T01:57:29;100728.84;;;11.73;70.44
70370;BME280;57790;51.356;-2.906;2022-10-16T02:00:31;100725.66;;;11.85;70.24
70370;BME280;57790;51.356;-2.906;2022-10-16T02:03:32;100726.66;;;12.01;69.38
70370;BME280;57790;51.356;-2.906;2022-10-16T02:06:34;100726.47;;;11.94;69.92
70370;BME280;57790;51.356;-2.906;2022-10-16T02:09:36;100731.97;;;11.84;70.54
70370;BME280;57790;51.356;-2.906;2022-10-16T02:12:40;100740.97;;;11.75;70.71
70370;BME280;57790;51.356;-2.906;2022-10-16T02:15:42;100751.94;;;11.64;71.39
70370;BME280;57790;51.356;-2.906;2022-10-16T02:18:43;100746.97;;;11.61;71.19
70370;BME280;57790;51.356;-2.906;2022-10-16T02:21:48;100752.41;;;11.68;71.26
70370;BME280;57790;51.356;-2.906;2022-10-16T02:25:21;100751.13;;;11.47;71.94
70370;BME280;57790;51.356;-2.906;2022-10-16T02:28:42;100756.94;;;11.51;71.62
70370;BME280;57790;51.356;-2.906;2022-10-16T02:31:48;100755.91;;;11.68;71.17
70370;BME280;57790;51.356;-2.906;2022-10-16T02:34:51;100755.59;;;11.55;71.53
70370;BME280;57790;51.356;-2.906;2022-10-16T02:37:52;100756.59;;;11.62;71.45
70370;BME280;57790;51.356;-2.906;2022-10-16T02:40:54;100762.69;;;11.71;71.50
70370;BME280;57790;51.356;-2.906;2022-10-16T02:43:55;100752.59;;;11.66;71.27
70370;BME280;57790;51.356;-2.906;2022-10-16T02:46:55;100766.25;;;11.47;71.88
70370;BME280;57790;51.356;-2.906;2022-10-16T02:49:55;100776.19;;;11.45;71.94
70370;BME280;57790;51.356;-2.906;2022-10-16T02:52:56;100777.03;;;11.45;71.59
70370;BME280;57790;51.356;-2.906;2022-10-16T02:55:56;100786.97;;;11.35;71.98
70370;BME280;57790;51.356;-2.906;2022-10-16T02:58:57;100784.47;;;11.42;72.23
70370;BME280;57790;51.356;-2.906;2022-10-16T03:01:57;100787.97;;;11.34;71.76
70370;BME280;57790;51.356;-2.906;2022-10-16T03:04:57;100794.13;;;11.35;71.65
70370;BME280;57790;51.356;-2.906;2022-10-16T03:07:58;100800.91;;;11.45;71.29
70370;BME280;57790;51.356;-2.906;2022-10-16T03:11:00;100813.69;;;11.50;71.60
70370;BME280;57790;51.356;-2.906;2022-10-16T03:14:01;100821.50;;;11.59;71.41
70370;BME280;57790;51.356;-2.906;2022-10-16T03:17:01;100822.63;;;11.65;70.89
70370;BME280;57790;51.356;-2.906;2022-10-16T03:20:02;100821.13;;;11.95;71.90
70370;BME280;57790;51.356;-2.906;2022-10-16T03:23:03;100848.03;;;11.76;74.25
70370;BME280;57790;51.356;-2.906;2022-10-16T03:26:04;100855.34;;;11.49;77.30
70370;BME280;57790;51.356;-2.906;2022-10-16T03:29:04;100861.44;;;11.25;79.37
70370;BME280;57790;51.356;-2.906;2022-10-16T03:32:05;100876.88;;;11.30;80.43
70370;BME280;57790;51.356;-2.906;2022-10-16T03:35:06;100874.75;;;10.75;82.92
70370;BME280;57790;51.356;-2.906;2022-10-16T03:38:06;100867.38;;;11.11;81.75
70370;BME280;57790;51.356;-2.906;2022-10-16T03:41:06;100864.56;;;11.05;81.81
70370;BME280;57790;51.356;-2.906;2022-10-16T03:44:07;100863.25;;;11.00;80.81
70370;BME280;57790;51.356;-2.906;2022-10-16T03:47:08;100866.19;;;10.89;81.65
70370;BME280;57790;51.356;-2.906;2022-10-16T03:50:08;100871.38;;;11.07;81.79
70370;BME280;57790;51.356;-2.906;2022-10-16T03:53:09;100874.97;;;10.98;82.63
70370;BME280;57790;51.356;-2.906;2022-10-16T03:56:09;100872.66;;;10.95;82.55
70370;BME280;57790;51.356;-2.906;2022-10-16T03:59:10;100880.44;;;10.88;83.21
70370;BME280;57790;51.356;-2.906;2022-10-16T04:02:10;100873.44;;;10.79;82.40
70370;BME280;57790;51.356;-2.906;2022-10-16T04:05:10;100879.41;;;10.81;81.86
70370;BME280;57790;51.356;-2.906;2022-10-16T04:08:11;100882.38;;;10.78;81.49
70370;BME280;57790;51.356;-2.906;2022-10-16T04:11:11;100882.81;;;10.57;81.92
70370;BME280;57790;51.356;-2.906;2022-10-16T04:14:12;100874.91;;;10.73;81.24
70370;BME280;57790;51.356;-2.906;2022-10-16T04:17:12;100886.28;;;10.58;81.33
70370;BME280;57790;51.356;-2.906;2022-10-16T04:20:12;100883.25;;;10.53;81.07
70370;BME280;57790;51.356;-2.906;2022-10-16T04:23:13;100885.91;;;10.53;80.95
70370;BME280;57790;51.356;-2.906;2022-10-16T04:26:13;100888.25;;;10.56;80.10
70370;BME280;57790;51.356;-2.906;2022-10-16T04:29:13;100887.41;;;10.89;80.15
70370;BME280;57790;51.356;-2.906;2022-10-16T04:32:14;100908.84;;;10.62;79.83
70370;BME280;57790;51.356;-2.906;2022-10-16T04:35:14;100908.91;;;10.44;81.20
70370;BME280;57790;51.356;-2.906;2022-10-16T04:38:15;100910.75;;;10.52;81.23
70370;BME280;57790;51.356;-2.906;2022-10-16T04:41:15;100917.50;;;10.20;82.54
70370;BME280;57790;51.356;-2.906;2022-10-16T04:44:16;100925.84;;;10.25;82.79
70370;BME280;57790;51.356;-2.906;2022-10-16T04:47:16;100924.28;;;10.40;81.75
70370;BME280;57790;51.356;-2.906;2022-10-16T04:50:16;100936.50;;;10.33;82.82
70370;BME280;57790;51.356;-2.906;2022-10-16T04:53:17;100940.72;;;10.44;83.36
70370;BME280;57790;51.356;-2.906;2022-10-16T04:56:17;100941.97;;;10.58;82.41
70370;BME280;57790;51.356;-2.906;2022-10-16T04:59:24;100946.03;;;10.78;80.74
70370;BME280;57790;51.356;-2.906;2022-10-16T05:02:25;100961.91;;;10.44;82.00
70370;BME280;57790;51.356;-2.906;2022-10-16T05:05:25;100955.78;;;10.43;81.62
70370;BME280;57790;51.356;-2.906;2022-10-16T05:08:25;100960.34;;;10.33;82.62
70370;BME280;57790;51.356;-2.906;2022-10-16T05:11:26;100964.84;;;10.41;81.80
70370;BME280;57790;51.356;-2.906;2022-10-16T05:14:26;100975.63;;;10.39;82.43
70370;BME280;57790;51.356;-2.906;2022-10-16T05:17:27;100979.16;;;10.22;82.53
70370;BME280;57790;51.356;-2.906;2022-10-16T05:20:27;100982.69;;;10.31;82.42
70370;BME280;57790;51.356;-2.906;2022-10-16T05:23:28;100992.16;;;10.16;83.06
70370;BME280;57790;51.356;-2.906;2022-10-16T05:26:28;100991.00;;;10.36;82.49
70370;BME280;57790;51.356;-2.906;2022-10-16T05:29:29;101001.75;;;10.34;82.63
70370;BME280;57790;51.356;-2.906;2022-10-16T05:32:29;101009.09;;;10.40;81.47
70370;BME280;57790;51.356;-2.906;2022-10-16T05:35:29;101012.94;;;10.46;81.65
70370;BME280;57790;51.356;-2.906;2022-10-16T05:38:30;101018.03;;;10.39;82.35
70370;BME280;57790;51.356;-2.906;2022-10-16T05:41:31;101024.91;;;10.50;81.62
70370;BME280;57790;51.356;-2.906;2022-10-16T05:44:32;101010.63;;;10.43;81.29
70370;BME280;57790;51.356;-2.906;2022-10-16T05:47:32;101011.38;;;10.35;80.95
70370;BME280;57790;51.356;-2.906;2022-10-16T05:50:33;101030.91;;;10.34;80.93
70370;BME280;57790;51.356;-2.906;2022-10-16T05:53:35;101033.78;;;10.23;81.07
70370;BME280;57790;51.356;-2.906;2022-10-16T05:56:35;101036.28;;;10.25;81.12
70370;BME280;57790;51.356;-2.906;2022-10-16T05:59:36;101044.97;;;9.81;83.41
70370;BME280;57790;51.356;-2.906;2022-10-16T06:02:37;101049.31;;;10.00;83.74
70370;BME280;57790;51.356;-2.906;2022-10-16T06:05:37;101047.50;;;10.01;83.48
70370;BME280;57790;51.356;-2.906;2022-10-16T06:08:39;101056.16;;;9.75;83.73
70370;BME280;57790;51.356;-2.906;2022-10-16T06:11:40;101040.94;;;9.60;85.04
70370;BME280;57790;51.356;-2.906;2022-10-16T06:14:40;101054.50;;;9.74;84.33
70370;BME280;57790;51.356;-2.906;2022-10-16T06:17:40;101043.53;;;9.69;85.17
70370;BME280;57790;51.356;-2.906;2022-10-16T06:20:41;101039.44;;;9.57;84.93
70370;BME280;57790;51.356;-2.906;2022-10-16T06:23:41;101042.41;;;9.90;83.40
70370;BME280;57790;51.356;-2.906;2022-10-16T06:26:42;101046.34;;;9.86;83.33
70370;BME280;57790;51.356;-2.906;2022-10-16T06:29:42;101063.41;;;9.56;84.12
70370;BME280;57790;51.356;-2.906;2022-10-16T06:32:43;101070.19;;;9.58;85.05
70370;BME280;57790;51.356;-2.906;2022-10-16T06:35:44;101071.03;;;9.59;84.33
70370;BME280;57790;51.356;-2.906;2022-10-16T06:38:44;101068.25;;;9.60;84.49
70370;BME280;57790;51.356;-2.906;2022-10-16T06:41:45;101075.38;;;9.50;84.54
70370;BME280;57790;51.356;-2.906;2022-10-16T06:44:45;101086.31;;;9.37;84.50
70370;BME280;57790;51.356;-2.906;2022-10-16T06:47:45;101088.13;;;9.37;83.95
70370;BME280;57790;51.356;-2.906;2022-10-16T06:51:04;101088.69;;;9.40;84.41
70370;BME280;57790;51.356;-2.906;2022-10-16T06:54:04;101100.97;;;9.32;84.54
70370;BME280;57790;51.356;-2.906;2022-10-16T06:57:04;101100.81;;;9.33;85.00
70370;BME280;57790;51.356;-2.906;2022-10-16T07:00:05;101103.31;;;9.35;85.36
70370;BME280;57790;51.356;-2.906;2022-10-16T07:03:06;101105.66;;;9.38;84.73
70370;BME280;57790;51.356;-2.906;2022-10-16T07:06:08;101119.50;;;9.59;84.49
70370;BME280;57790;51.356;-2.906;2022-10-16T07:09:09;101128.38;;;9.40;84.71
70370;BME280;57790;51.356;-2.906;2022-10-16T07:12:10;101130.03;;;9.41;84.80
70370;BME280;57790;51.356;-2.906;2022-10-16T07:15:11;101126.09;;;9.55;85.11
70370;BME280;57790;51.356;-2.906;2022-10-16T07:18:15;101131.25;;;9.47;83.73
70370;BME280;57790;51.356;-2.906;2022-10-16T07:21:18;101132.25;;;9.73;83.64
70370;BME280;57790;51.356;-2.906;2022-10-16T07:24:20;101132.44;;;9.90;83.28
70370;BME280;57790;51.356;-2.906;2022-10-16T07:27:20;101133.75;;;10.03;82.85
70370;BME280;57790;51.356;-2.906;2022-10-16T07:30:24;101138.28;;;10.11;82.84
70370;BME280;57790;51.356;-2.906;2022-10-16T07:33:24;101137.91;;;10.33;82.04
70370;BME280;57790;51.356;-2.906;2022-10-16T07:36:24;101146.31;;;10.29;82.32
70370;BME280;57790;51.356;-2.906;2022-10-16T07:39:25;101142.28;;;10.60;81.67
70370;BME280;57790;51.356;-2.906;2022-10-16T07:42:27;101156.84;;;10.56;81.41
70370;BME280;57790;51.356;-2.906;2022-10-16T07:45:27;101162.06;;;10.48;81.86
70370;BME280;57790;51.356;-2.906;2022-10-16T07:48:29;101163.34;;;10.44;82.30
70370;BME280;57790;51.356;-2.906;2022-10-16T07:51:30;101167.88;;;10.52;82.63
70370;BME280;57790;51.356;-2.906;2022-10-16T07:54:31;101169.84;;;10.50;83.00
70370;BME280;57790;51.356;-2.906;2022-10-16T07:57:31;101187.78;;;10.56;82.30
70370;BME280;57790;51.356;-2.906;2022-10-16T08:00:32;101190.59;;;10.54;82.18
70370;BME280;57790;51.356;-2.906;2022-10-16T08:03:33;101198.81;;;10.61;82.49
70370;BME280;57790;51.356;-2.906;2022-10-16T08:06:38;101204.47;;;10.66;82.41
70370;BME280;57790;51.356;-2.906;2022-10-16T08:09:39;101199.91;;;10.94;82.20
70370;BME280;57790;51.356;-2.906;2022-10-16T08:12:40;101198.00;;;11.04;81.74
70370;BME280;57790;51.356;-2.906;2022-10-16T08:15:41;101197.06;;;11.13;81.70
70370;BME280;57790;51.356;-2.906;2022-10-16T08:18:42;101192.72;;;11.30;80.58
70370;BME280;57790;51.356;-2.906;2022-10-16T08:21:42;101197.81;;;11.75;78.70
70370;BME280;57790;51.356;-2.906;2022-10-16T08:24:43;101187.94;;;11.94;78.13
70370;BME280;57790;51.356;-2.906;2022-10-16T08:27:43;101190.22;;;12.31;76.93
70370;BME280;57790;51.356;-2.906;2022-10-16T08:30:44;101196.53;;;12.30;76.65
70370;BME280;57790;51.356;-2.906;2022-10-16T08:33:45;101201.94;;;12.78;74.81
70370;BME280;57790;51.356;-2.906;2022-10-16T08:36:47;101212.41;;;12.96;75.27
70370;BME280;57790;51.356;-2.906;2022-10-16T08:39:47;101208.19;;;15.66;69.90
70370;BME280;57790;51.356;-2.906;2022-10-16T08:49:11;101217.06;;;15.44;65.56
70370;BME280;57790;51.356;-2.906;2022-10-16T08:52:16;101218.44;;;15.25;64.29
70370;BME280;57790;51.356;-2.906;2022-10-16T08:55:30;101214.72;;;15.93;65.12
70370;BME280;57790;51.356;-2.906;2022-10-16T08:58:31;101215.19;;;17.68;58.81
70370;BME280;57790;51.356;-2.906;2022-10-16T09:01:40;101214.94;;;15.62;63.90
70370;BME280;57790;51.356;-2.906;2022-10-16T09:04:49;101198.69;;;17.08;59.49
70370;BME280;57790;51.356;-2.906;2022-10-16T09:07:57;101206.66;;;17.86;58.50
70370;BME280;57790;51.356;-2.906;2022-10-16T09:11:06;101205.69;;;17.65;59.49
70370;BME280;57790;51.356;-2.906;2022-10-16T09:21:19;101229.94;;;17.50;58.77
70370;BME280;57790;51.356;-2.906;2022-10-16T09:24:25;101225.38;;;18.88;55.70
70370;BME280;57790;51.356;-2.906;2022-10-16T09:27:26;101228.75;;;18.42;55.34
70370;BME280;57790;51.356;-2.906;2022-10-16T09:30:28;101223.50;;;19.21;55.79
70370;BME280;57790;51.356;-2.906;2022-10-16T09:33:33;101225.78;;;18.17;57.35
70370;BME280;57790;51.356;-2.906;2022-10-16T09:36:40;101222.44;;;17.18;60.68
70370;BME280;57790;51.356;-2.906;2022-10-16T09:39:46;101229.53;;;18.23;57.24
70370;BME280;57790;51.356;-2.906;2022-10-16T09:42:47;101226.00;;;19.16;53.93
70370;BME280;57790;51.356;-2.906;2022-10-16T09:45:59;101217.75;;;19.11;52.09
70370;BME280;57790;51.356;-2.906;2022-10-16T09:49:21;101215.47;;;20.19;51.62
70370;BME280;57790;51.356;-2.906;2022-10-16T09:52:23;101222.50;;;19.55;52.75
70370;BME280;57790;51.356;-2.906;2022-10-16T09:55:23;101225.69;;;20.55;50.65
70370;BME280;57790;51.356;-2.906;2022-10-16T09:58:24;101226.00;;;21.28;48.58
70370;BME280;57790;51.356;-2.906;2022-10-16T10:01:51;101228.22;;;21.06;48.90
70370;BME280;57790;51.356;-2.906;2022-10-16T10:04:53;101208.88;;;21.41;48.13
70370;BME280;57790;51.356;-2.906;2022-10-16T10:08:04;101219.31;;;21.56;47.22
70370;BME280;57790;51.356;-2.906;2022-10-16T10:11:06;101218.63;;;21.97;46.04
70370;BME280;57790;51.356;-2.906;2022-10-16T10:17:28;101234.28;;;22.13;45.34
70370;BME280;57790;51.356;-2.906;2022-10-16T10:20:35;101232.81;;;22.29;44.23
70370;BME280;57790;51.356;-2.906;2022-10-16T10:23:38;101223.91;;;22.29;44.82
70370;BME280;57790;51.356;-2.906;2022-10-16T10:26:44;101216.44;;;22.84;44.07
70370;BME280;57790;51.356;-2.906;2022-10-16T10:29:56;101212.03;;;23.13;43.05
70370;BME280;57790;51.356;-2.906;2022-10-16T10:36:25;101206.19;;;22.74;42.70
70370;BME280;57790;51.356;-2.906;2022-10-16T10:39:46;101199.69;;;22.64;42.60
70370;BME280;57790;51.356;-2.906;2022-10-16T10:42:59;101206.16;;;23.28;42.75
70370;BME280;57790;51.356;-2.906;2022-10-16T10:46:05;101205.22;;;23.57;41.74
70370;BME280;57790;51.356;-2.906;2022-10-16T10:56:00;101218.75;;;23.22;39.58
70370;BME280;57790;51.356;-2.906;2022-10-16T11:06:05;101203.28;;;24.04;39.86
70370;BME280;57790;51.356;-2.906;2022-10-16T11:09:31;101206.28;;;23.68;40.03
70370;BME280;57790;51.356;-2.906;2022-10-16T11:12:42;101208.09;;;24.43;39.23
70370;BME280;57790;51.356;-2.906;2022-10-16T11:15:47;101193.56;;;25.11;37.21
70370;BME280;57790;51.356;-2.906;2022-10-16T11:22:34;101196.13;;;25.01;36.57
70370;BME280;57790;51.356;-2.906;2022-10-16T11:25:36;101199.75;;;25.62;36.64
70370;BME280;57790;51.356;-2.906;2022-10-16T11:28:49;101197.09;;;25.11;36.50
70370;BME280;57790;51.356;-2.906;2022-10-16T11:31:54;101197.38;;;24.48;36.99
70370;BME280;57790;51.356;-2.906;2022-10-16T11:35:04;101202.31;;;22.82;38.51
70370;BME280;57790;51.356;-2.906;2022-10-16T11:41:42;101194.75;;;24.53;38.01
70370;BME280;57790;51.356;-2.906;2022-10-16T11:52:17;101197.13;;;23.57;38.66
70370;BME280;57790;51.356;-2.906;2022-10-16T11:55:21;101195.78;;;24.23;37.46
70370;BME280;57790;51.356;-2.906;2022-10-16T11:58:33;101189.47;;;25.08;38.75
70370;BME280;57790;51.356;-2.906;2022-10-16T12:05:15;101195.81;;;23.36;40.37
70370;BME280;57790;51.356;-2.906;2022-10-16T12:08:19;101190.13;;;22.49;41.39
70370;BME280;57790;51.356;-2.906;2022-10-16T12:17:37;101179.44;;;23.78;39.44
70370;BME280;57790;51.356;-2.906;2022-10-16T12:20:38;101186.50;;;22.55;39.90
70370;BME280;57790;51.356;-2.906;2022-10-16T12:23:54;101181.50;;;21.92;42.16
70370;BME280;57790;51.356;-2.906;2022-10-16T12:26:55;101171.19;;;21.71;43.82
70370;BME280;57790;51.356;-2.906;2022-10-16T12:30:00;101172.84;;;21.72;44.18
70370;BME280;57790;51.356;-2.906;2022-10-16T12:33:04;101163.75;;;21.85;43.72
70370;BME280;57790;51.356;-2.906;2022-10-16T12:36:13;101164.50;;;21.74;45.62
70370;BME280;57790;51.356;-2.906;2022-10-16T12:39:23;101164.47;;;20.24;46.17
70370;BME280;57790;51.356;-2.906;2022-10-16T12:45:32;101156.19;;;19.87;47.16
70370;BME280;57790;51.356;-2.906;2022-10-16T12:48:33;101149.16;;;19.86;47.34
70370;BME280;57790;51.356;-2.906;2022-10-16T12:51:36;101142.06;;;19.92;47.92
70370;BME280;57790;51.356;-2.906;2022-10-16T12:54:37;101142.34;;;19.77;48.11
70370;BME280;57790;51.356;-2.906;2022-10-16T12:58:15;101144.84;;;19.66;48.73
70370;BME280;57790;51.356;-2.906;2022-10-16T13:01:29;101142.09;;;20.24;47.54
70370;BME280;57790;51.356;-2.906;2022-10-16T13:05:03;101138.28;;;20.38;49.19
70370;BME280;57790;51.356;-2.906;2022-10-16T13:18:05;101116.34;;;19.58;46.33
70370;BME280;57790;51.356;-2.906;2022-10-16T13:28:35;101109.63;;;20.18;46.75
70370;BME280;57790;51.356;-2.906;2022-10-16T13:31:38;101100.06;;;20.23;46.65
70370;BME280;57790;51.356;-2.906;2022-10-16T13:34:47;101100.50;;;19.81;48.40
70370;BME280;57790;51.356;-2.906;2022-10-16T13:37:49;101114.94;;;19.22;45.64
70370;BME280;57790;51.356;-2.906;2022-10-16T13:40:55;101095.28;;;19.42;47.21
70370;BME280;57790;51.356;-2.906;2022-10-16T13:43:56;101090.16;;;19.78;45.36
70370;BME280;57790;51.356;-2.906;2022-10-16T13:47:01;101089.28;;;20.29;45.41
70370;BME280;57790;51.356;-2.906;2022-10-16T13:50:13;101095.50;;;19.91;45.41
70370;BME280;57790;51.356;-2.906;2022-10-16T13:53:14;101085.59;;;20.55;44.90
70370;BME280;57790;51.356;-2.906;2022-10-16T13:56:20;101086.94;;;20.64;45.13
70370;BME280;57790;51.356;-2.906;2022-10-16T13:59:26;101080.47;;;20.47;44.33
70370;BME280;57790;51.356;-2.906;2022-10-16T14:02:35;101083.06;;;21.77;43.62
70370;BME280;57790;51.356;-2.906;2022-10-16T14:05:56;101076.22;;;21.26;43.24
70370;BME280;57790;51.356;-2.906;2022-10-16T14:09:05;101074.56;;;20.82;43.71
70370;BME280;57790;51.356;-2.906;2022-10-16T14:12:11;101074.81;;;20.55;44.43
70370;BME280;57790;51.356;-2.906;2022-10-16T14:15:17;101069.78;;;21.27;44.34
70370;BME280;57790;51.356;-2.906;2022-10-16T14:18:21;101064.47;;;20.95;44.99
70370;BME280;57790;51.356;-2.906;2022-10-16T14:21:23;101063.06;;;21.11;43.43
70370;BME280;57790;51.356;-2.906;2022-10-16T14:24:27;101068.19;;;20.76;43.63
70370;BME280;57790;51.356;-2.906;2022-10-16T14:27:35;101069.91;;;20.45;43.47
70370;BME280;57790;51.356;-2.906;2022-10-16T14:30:37;101066.44;;;19.69;45.25
70370;BME280;57790;51.356;-2.906;2022-10-16T14:33:37;101056.50;;;20.32;44.49
70370;BME280;57790;51.356;-2.906;2022-10-16T14:36:40;101052.09;;;20.38;43.99
70370;BME280;57790;51.356;-2.906;2022-10-16T14:39:41;101044.97;;;20.75;44.75
70370;BME280;57790;51.356;-2.906;2022-10-16T14:42:43;101041.47;;;20.49;44.82
70370;BME280;57790;51.356;-2.906;2022-10-16T14:45:50;101028.59;;;20.76;46.24
70370;BME280;57790;51.356;-2.906;2022-10-16T14:49:03;101028.72;;;20.63;47.02
70370;BME280;57790;51.356;-2.906;2022-10-16T14:52:09;101030.88;;;20.55;44.60
70370;BME280;57790;51.356;-2.906;2022-10-16T14:55:10;101024.28;;;20.50;47.24
70370;BME280;57790;51.356;-2.906;2022-10-16T14:58:19;101013.50;;;20.50;45.46
70370;BME280;57790;51.356;-2.906;2022-10-16T15:01:21;101019.66;;;20.58;46.22
70370;BME280;57790;51.356;-2.906;2022-10-16T15:04:21;101007.59;;;20.42;46.83
70370;BME280;57790;51.356;-2.906;2022-10-16T15:07:22;101002.56;;;21.25;46.30
70370;BME280;57790;51.356;-2.906;2022-10-16T15:10:24;100997.03;;;20.34;47.10
70370;BME280;57790;51.356;-2.906;2022-10-16T15:13:25;100988.75;;;18.83;50.17
70370;BME280;57790;51.356;-2.906;2022-10-16T15:16:26;100980.81;;;19.90;49.88
70370;BME280;57790;51.356;-2.906;2022-10-16T15:19:26;100980.50;;;19.74;48.53
70370;BME280;57790;51.356;-2.906;2022-10-16T15:22:27;100968.88;;;18.97;51.13
70370;BME280;57790;51.356;-2.906;2022-10-16T15:25:32;100954.91;;;18.35;52.65
70370;BME280;57790;51.356;-2.906;2022-10-16T15:28:33;100946.66;;;18.30;52.70
70370;BME280;57790;51.356;-2.906;2022-10-16T15:31:34;100948.03;;;18.79;52.04
70370;BME280;57790;51.356;-2.906;2022-10-16T15:34:34;100935.69;;;18.45;53.15
70370;BME280;57790;51.356;-2.906;2022-10-16T15:37:34;100926.88;;;18.11;54.38
70370;BME280;57790;51.356;-2.906;2022-10-16T15:40:35;100911.06;;;18.61;53.87
70370;BME280;57790;51.356;-2.906;2022-10-16T15:43:35;100907.44;;;18.16;54.55
70370;BME280;57790;51.356;-2.906;2022-10-16T15:46:36;100904.78;;;17.70;55.61
70370;BME280;57790;51.356;-2.906;2022-10-16T15:49:37;100904.38;;;17.79;54.97
70370;BME280;57790;51.356;-2.906;2022-10-16T15:52:38;100903.53;;;17.72;56.04
70370;BME280;57790;51.356;-2.906;2022-10-16T15:55:39;100903.75;;;17.71;55.74
70370;BME280;57790;51.356;-2.906;2022-10-16T15:58:39;100905.25;;;17.19;57.21
70370;BME280;57790;51.356;-2.906;2022-10-16T16:01:40;100904.09;;;17.61;57.47
70370;BME280;57790;51.356;-2.906;2022-10-16T16:04:40;100903.00;;;17.29;58.26
70370;BME280;57790;51.356;-2.906;2022-10-16T16:07:41;100901.13;;;17.10;58.15
70370;BME280;57790;51.356;-2.906;2022-10-16T16:10:41;100903.78;;;17.10;60.19
70370;BME280;57790;51.356;-2.906;2022-10-16T16:13:42;100898.25;;;17.18;60.24
70370;BME280;57790;51.356;-2.906;2022-10-16T16:16:42;100907.41;;;16.89;61.22
70370;BME280;57790;51.356;-2.906;2022-10-16T16:19:43;100900.28;;;17.09;61.21
70370;BME280;57790;51.356;-2.906;2022-10-16T16:22:43;100895.72;;;17.03;63.50
70370;BME280;57790;51.356;-2.906;2022-10-16T16:25:44;100904.56;;;16.97;63.80
70370;BME280;57790;51.356;-2.906;2022-10-16T16:28:44;100897.66;;;16.75;64.66
70370;BME280;57790;51.356;-2.906;2022-10-16T16:31:44;100882.47;;;16.82;64.50
70370;BME280;57790;51.356;-2.906;2022-10-16T16:34:47;100874.81;;;16.38;66.21
70370;BME280;57790;51.356;-2.906;2022-10-16T16:37:47;100863.78;;;16.54;67.44
70370;BME280;57790;51.356;-2.906;2022-10-16T16:40:48;100856.78;;;16.53;67.55
70370;BME280;57790;51.356;-2.906;2022-10-16T16:43:48;100844.75;;;16.35;68.79
70370;BME280;57790;51.356;-2.906;2022-10-16T16:46:51;100855.13;;;16.17;69.50
70370;BME280;57790;51.356;-2.906;2022-10-16T16:49:51;100848.19;;;16.64;68.53
70370;BME280;57790;51.356;-2.906;2022-10-16T16:52:52;100833.44;;;16.81;68.71
70370;BME280;57790;51.356;-2.906;2022-10-16T16:55:52;100822.22;;;16.64;69.99
70370;BME280;57790;51.356;-2.906;2022-10-16T16:58:55;100837.84;;;16.61;69.65
70370;BME280;57790;51.356;-2.906;2022-10-16T17:01:56;100832.47;;;16.13;71.47
70370;BME280;57790;51.356;-2.906;2022-10-16T17:04:56;100816.69;;;16.66;71.79
70370;BME280;57790;51.356;-2.906;2022-10-16T17:07:57;100806.63;;;16.33;71.68
70370;BME280;57790;51.356;-2.906;2022-10-16T17:10:58;100798.56;;;16.20;72.82
70370;BME280;57790;51.356;-2.906;2022-10-16T17:13:59;100797.59;;;16.00;73.61
70370;BME280;57790;51.356;-2.906;2022-10-16T17:17:00;100796.84;;;16.06;72.90
70370;BME280;57790;51.356;-2.906;2022-10-16T17:20:03;100783.41;;;15.99;73.60
70370;BME280;57790;51.356;-2.906;2022-10-16T17:23:03;100789.56;;;15.93;73.71
70370;BME280;57790;51.356;-2.906;2022-10-16T17:26:09;100798.41;;;15.94;74.84
70370;BME280;57790;51.356;-2.906;2022-10-16T17:29:11;100796.34;;;15.96;74.13